Time;durP1;ratioP1;P1;durP2;ratioP2;P2;SDS_P1;SDS_P2;PMS_P1;PMS_P2;Temp;Humidity;BMP_temperature;BMP_pressure;BME280_temperature;BME280_humidity;BME280_pressure;Samples;Min_cycle;Max_cycle;Signal;HPM_P1;HPM_P2
2023/10/12 00:01:57;;;;;;;;;;;25.40;91.70;;;;;;5115004;28;19978;-70
2023/10/12 00:04:28;;;;;;;;;;;25.70;90.90;;;;;;5114650;27;19957;-69
2023/10/12 00:06:55;;;;;;;;;;;25.80;90.20;;;;;;5114527;28;19914;-70
2023/10/12 00:09:26;;;;;;;;;;;26.00;88.50;;;;;;5114773;28;19911;-71
2023/10/12 00:12:07;;;;;;;;;;;26.10;87.80;;;;;;5114342;28;19912;-67
2023/10/12 00:14:34;;;;;;;;;;;26.30;84.90;;;;;;5114777;28;19916;-67
2023/10/12 00:17:01;;;;;;;;;;;26.60;83.90;;;;;;5114591;28;19919;-67
2023/10/12 00:19:28;;;;;;;;;;;26.70;81.20;;;;;;5114226;28;19955;-67
2023/10/12 00:22:02;;;;;;;;;;;26.80;78.30;;;;;;5114409;28;19943;-68
2023/10/12 00:24:30;;;;;;;;;;;27.10;78.60;;;;;;5114430;28;19954;-70
2023/10/12 00:26:58;;;;;;;;;;;27.30;76.70;;;;;;5113987;28;19919;-68
2023/10/12 00:29:25;;;;;;;;;;;27.40;77.00;;;;;;5113485;28;19912;-70
2023/10/12 00:31:52;;;;;;;;;;;27.60;75.40;;;;;;5114338;28;19951;-70
2023/10/12 00:34:23;;;;;;;;;;;27.70;73.00;;;;;;5113660;28;19943;-70
2023/10/12 00:36:52;;;;;;;;;;;27.90;72.70;;;;;;5114156;28;19912;-69
2023/10/12 00:39:21;;;;;;;;;;;28.10;72.60;;;;;;5114150;28;20067;-69
2023/10/12 00:41:51;;;;;;;;;;;28.30;70.40;;;;;;5114162;28;20387;-67
2023/10/12 00:44:26;;;;;;;;;;;28.50;71.10;;;;;;5113809;28;19908;-68
2023/10/12 00:47:06;;;;;;;;;;;28.60;69.50;;;;;;5113671;28;19911;-70
2023/10/12 00:49:37;;;;;;;;;;;28.80;68.10;;;;;;5114151;28;19919;-69
2023/10/12 00:52:46;;;;;;;;;;;29.00;67.80;;;;;;5114147;28;19907;-70
2023/10/12 00:55:00;;;;;;;;;;;29.30;69.20;;;;;;5110404;28;19919;-69
2023/10/12 00:57:27;;;;;;;;;;;29.40;66.20;;;;;;5113388;28;19912;-71
2023/10/12 00:59:58;;;;;;;;;;;29.50;67.20;;;;;;5112371;28;20385;-71
2023/10/12 01:02:31;;;;;;;;;;;29.70;63.30;;;;;;5113575;28;20356;-70
2023/10/12 01:05:01;;;;;;;;;;;29.80;64.60;;;;;;5095133;28;19916;-69
2023/10/12 01:07:34;;;;;;;;;;;29.90;64.50;;;;;;5113706;28;19924;-71
2023/10/12 01:10:06;;;;;;;;;;;29.90;63.40;;;;;;5113490;28;19908;-68
2023/10/12 01:12:34;;;;;;;;;;;30.00;62.10;;;;;;5113771;28;19908;-70
2023/10/12 01:15:11;;;;;;;;;;;30.20;63.80;;;;;;5112924;28;19920;-69
2023/10/12 01:17:40;;;;;;;;;;;30.40;68.40;;;;;;5113186;28;19908;-67
2023/10/12 01:20:16;;;;;;;;;;;30.60;67.80;;;;;;5113380;28;19912;-71
2023/10/12 01:22:43;;;;;;;;;;;30.90;65.90;;;;;;5113389;28;19908;-69
2023/10/12 01:25:33;;;;;;;;;;;31.00;62.00;;;;;;5113280;28;19916;-67
2023/10/12 01:28:00;;;;;;;;;;;31.10;59.00;;;;;;5112102;28;19915;-73
2023/10/12 01:30:29;;;;;;;;;;;31.20;57.30;;;;;;5113119;27;19921;-70
2023/10/12 01:32:58;;;;;;;;;;;31.40;57.60;;;;;;5112943;28;19968;-70
2023/10/12 01:35:33;;;;;;;;;;;31.50;56.70;;;;;;5113392;28;19919;-72
2023/10/12 01:38:01;;;;;;;;;;;31.50;58.30;;;;;;5112868;28;19919;-70
2023/10/12 01:43:12;;;;;;;;;;;32.10;56.50;;;;;;5113199;28;19912;-69
2023/10/12 01:45:42;;;;;;;;;;;32.10;54.90;;;;;;5113127;28;19957;-71
2023/10/12 01:48:16;;;;;;;;;;;32.40;56.40;;;;;;5112650;28;20383;-68
2023/10/12 01:50:43;;;;;;;;;;;32.30;55.00;;;;;;5112896;28;19924;-71
2023/10/12 01:53:29;;;;;;;;;;;32.50;56.40;;;;;;5113169;28;20507;-69
2023/10/12 01:55:55;;;;;;;;;;;32.80;54.80;;;;;;5112932;28;19927;-70
2023/10/12 01:58:27;;;;;;;;;;;32.80;54.80;;;;;;5112477;28;19907;-71
2023/10/12 02:00:55;;;;;;;;;;;33.00;54.00;;;;;;5112795;28;19911;-67
2023/10/12 02:03:32;;;;;;;;;;;33.10;53.20;;;;;;5112755;28;19919;-69
2023/10/12 02:05:59;;;;;;;;;;;33.20;52.90;;;;;;5112790;28;19915;-70
2023/10/12 02:08:32;;;;;;;;;;;33.30;53.30;;;;;;5112929;28;20015;-71
2023/10/12 02:11:37;;;;;;;;;;;33.50;52.70;;;;;;5112642;28;19951;-70
2023/10/12 02:14:00;;;;;;;;;;;33.50;52.10;;;;;;5101138;28;19922;-69
2023/10/12 02:16:37;;;;;;;;;;;33.50;58.40;;;;;;5115368;28;19923;-70
2023/10/12 02:19:05;;;;;;;;;;;33.80;62.50;;;;;;5116504;28;19952;-73
2023/10/12 02:21:37;;;;;;;;;;;34.00;63.60;;;;;;5116511;28;19916;-69
2023/10/12 02:26:41;;;;;;;;;;;33.90;64.80;;;;;;5115996;27;19982;-73
2023/10/12 02:34:25;;;;;;;;;;;34.00;63.20;;;;;;5108637;28;20446;-69
2023/10/12 02:37:16;;;;;;;;;;;34.50;64.10;;;;;;5108822;28;19916;-70
2023/10/12 02:39:43;;;;;;;;;;;34.90;65.90;;;;;;5106355;28;19947;-68
2023/10/12 02:45:00;;;;;;;;;;;36.10;63.70;;;;;;5110983;28;19911;-69
2023/10/12 02:47:30;;;;;;;;;;;36.40;62.20;;;;;;5104409;28;19920;-69
2023/10/12 02:52:36;;;;;;;;;;;38.20;61.00;;;;;;5114105;28;20007;-71
2023/10/12 02:55:17;;;;;;;;;;;38.60;60.70;;;;;;5108237;28;19916;-68
2023/10/12 02:58:27;;;;;;;;;;;39.00;59.90;;;;;;5109977;28;20559;-69
2023/10/12 03:03:33;;;;;;;;;;;40.20;58.00;;;;;;5110310;28;19957;-72
2023/10/12 03:06:07;;;;;;;;;;;39.90;57.90;;;;;;5105360;28;19920;-70
2023/10/12 03:08:46;;;;;;;;;;;40.30;58.10;;;;;;5112882;28;20007;-68
2023/10/12 03:11:13;;;;;;;;;;;41.20;57.20;;;;;;5113709;28;19918;-72
2023/10/12 03:13:41;;;;;;;;;;;41.80;56.20;;;;;;5112732;28;20407;-65
2023/10/12 03:18:44;;;;;;;;;;;43.30;54.60;;;;;;5114236;28;19970;-67
2023/10/12 03:21:11;;;;;;;;;;;42.60;53.70;;;;;;5110945;28;19912;-69
2023/10/12 03:23:39;;;;;;;;;;;41.70;54.40;;;;;;5104176;28;19988;-69
2023/10/12 03:28:46;;;;;;;;;;;42.30;54.70;;;;;;5107351;28;20010;-69
2023/10/12 03:31:35;;;;;;;;;;;43.10;55.60;;;;;;5103416;28;20006;-68
2023/10/12 03:34:13;;;;;;;;;;;42.90;54.10;;;;;;5113199;28;20280;-71
2023/10/12 03:36:45;;;;;;;;;;;44.20;52.90;;;;;;5112327;28;19972;-70
2023/10/12 03:50:09;;;;;;;;;;;44.30;42.20;;;;;;5113279;28;19947;-72
2023/10/12 03:52:34;;;;;;;;;;;43.70;42.20;;;;;;5111763;28;19912;-70
2023/10/12 04:18:32;;;;;;;;;;;43.20;41.40;;;;;;5124823;27;19912;-68
2023/10/12 04:20:59;;;;;;;;;;;43.60;41.50;;;;;;5106511;27;20401;-70
2023/10/12 04:28:41;;;;;;;;;;;44.50;40.80;;;;;;5112426;28;20417;-69
2023/10/12 04:36:48;;;;;;;;;;;44.10;40.80;;;;;;5077497;28;19916;-68
2023/10/12 04:39:24;;;;;;;;;;;43.80;40.90;;;;;;5111785;28;19912;-70
2023/10/12 04:47:04;;;;;;;;;;;43.60;41.00;;;;;;5105528;28;19931;-69
2023/10/12 04:54:31;;;;;;;;;;;43.90;40.70;;;;;;5111775;28;20030;-66
2023/10/12 04:57:16;;;;;;;;;;;43.90;39.90;;;;;;5107935;27;19912;-68
2023/10/12 05:00:00;;;;;;;;;;;43.90;39.70;;;;;;5111492;28;20296;-68
2023/10/12 05:05:15;;;;;;;;;;;43.20;40.20;;;;;;5099459;28;19954;-67
2023/10/12 05:07:54;;;;;;;;;;;42.70;40.50;;;;;;5099655;28;19916;-67
2023/10/12 05:10:46;;;;;;;;;;;42.60;40.60;;;;;;5110387;28;20362;-65
2023/10/12 05:13:10;;;;;;;;;;;42.90;41.30;;;;;;5110000;27;19919;-67
2023/10/12 05:15:46;;;;;;;;;;;43.40;40.60;;;;;;5108146;28;19917;-67
2023/10/12 05:18:17;;;;;;;;;;;43.20;40.90;;;;;;5110927;28;19957;-68
2023/10/12 05:20:44;;;;;;;;;;;43.50;40.20;;;;;;5111854;28;19908;-67
2023/10/12 05:23:12;;;;;;;;;;;43.40;40.10;;;;;;5110064;28;20577;-66
2023/10/12 05:26:07;;;;;;;;;;;43.00;40.20;;;;;;5085440;28;20279;-69
2023/10/12 05:28:36;;;;;;;;;;;43.00;40.50;;;;;;5109045;28;19924;-69
2023/10/12 05:36:09;;;;;;;;;;;43.90;40.70;;;;;;5101370;28;20407;-68
2023/10/12 05:38:36;;;;;;;;;;;43.70;40.10;;;;;;5098413;28;19907;-67
2023/10/12 05:41:08;;;;;;;;;;;43.70;39.80;;;;;;5107706;28;19912;-70
2023/10/12 05:43:36;;;;;;;;;;;43.40;39.90;;;;;;5102282;28;19965;-67
2023/10/12 05:46:15;;;;;;;;;;;42.50;40.00;;;;;;5099187;28;19963;-67
2023/10/12 05:48:46;;;;;;;;;;;42.40;40.10;;;;;;5096708;28;19931;-68
2023/10/12 05:51:21;;;;;;;;;;;42.00;40.50;;;;;;5103293;28;19948;-67
2023/10/12 05:54:01;;;;;;;;;;;41.80;40.50;;;;;;5101800;28;19938;-71
2023/10/12 05:56:33;;;;;;;;;;;41.30;40.80;;;;;;5094503;28;20388;-69
2023/10/12 05:58:59;;;;;;;;;;;41.40;40.90;;;;;;5107505;28;19920;-69
2023/10/12 06:01:32;;;;;;;;;;;41.70;40.50;;;;;;5104185;28;20019;-67
2023/10/12 06:03:59;;;;;;;;;;;41.40;40.90;;;;;;5102284;28;19934;-68
2023/10/12 06:06:25;;;;;;;;;;;41.30;40.70;;;;;;5105899;28;20273;-69
2023/10/12 06:08:55;;;;;;;;;;;40.60;41.20;;;;;;5108774;28;20288;-70
2023/10/12 06:11:26;;;;;;;;;;;39.70;41.60;;;;;;5097553;28;19916;-69
2023/10/12 06:13:53;;;;;;;;;;;38.80;42.50;;;;;;5103318;28;19918;-67
2023/10/12 06:16:20;;;;;;;;;;;38.40;42.80;;;;;;5109265;28;19971;-68
2023/10/12 06:18:49;;;;;;;;;;;38.00;42.90;;;;;;5110119;28;19960;-70
2023/10/12 06:21:19;;;;;;;;;;;37.40;43.70;;;;;;5105936;28;19908;-69
2023/10/12 06:23:50;;;;;;;;;;;36.70;43.10;;;;;;5089959;28;19916;-67
2023/10/12 06:26:29;;;;;;;;;;;35.90;43.70;;;;;;5092870;28;19909;-69
2023/10/12 06:28:59;;;;;;;;;;;35.00;55.00;;;;;;5114076;28;19918;-66
2023/10/12 06:31:30;;;;;;;;;;;34.00;58.40;;;;;;5105270;28;19919;-67
2023/10/12 06:34:04;;;;;;;;;;;32.80;60.20;;;;;;5106007;28;19924;-68
2023/10/12 06:36:40;;;;;;;;;;;32.10;49.90;;;;;;5102254;28;19911;-69
2023/10/12 06:46:48;;;;;;;;;;;33.20;45.20;;;;;;5100104;28;19912;-69
2023/10/12 06:49:18;;;;;;;;;;;33.90;47.60;;;;;;5093097;28;19920;-70
2023/10/12 06:52:00;;;;;;;;;;;34.90;54.70;;;;;;5096680;28;20007;-72
2023/10/12 06:55:21;;;;;;;;;;;35.50;56.10;;;;;;5110327;28;19927;-70
2023/10/12 07:02:24;;;;;;;;;;;34.90;57.60;;;;;;5109842;28;19912;-71
2023/10/12 07:04:54;;;;;;;;;;;34.80;56.90;;;;;;5114082;28;19916;-71
2023/10/12 07:07:29;;;;;;;;;;;34.40;57.20;;;;;;5104728;27;19912;-71
2023/10/12 07:12:42;;;;;;;;;;;34.60;56.80;;;;;;5107793;28;20329;-72
2023/10/12 07:15:12;;;;;;;;;;;34.10;56.00;;;;;;5110608;28;20014;-70
2023/10/12 07:17:51;;;;;;;;;;;33.30;52.20;;;;;;5104221;28;20276;-71
2023/10/12 07:23:18;;;;;;;;;;;32.40;47.50;;;;;;5105376;27;19920;-70
2023/10/12 07:25:46;;;;;;;;;;;32.10;47.40;;;;;;5078849;28;19912;-70
2023/10/12 07:28:25;;;;;;;;;;;31.90;47.50;;;;;;5107396;27;19912;-70
2023/10/12 07:33:32;;;;;;;;;;;31.60;47.10;;;;;;5102874;28;19919;-69
2023/10/12 07:36:17;;;;;;;;;;;31.50;47.30;;;;;;5102595;28;19916;-70
2023/10/12 07:38:56;;;;;;;;;;;31.50;47.80;;;;;;5113086;27;19912;-71
2023/10/12 07:41:41;;;;;;;;;;;31.40;47.40;;;;;;5107858;28;19920;-70
2023/10/12 07:44:08;;;;;;;;;;;31.40;47.40;;;;;;5106186;28;20015;-69
2023/10/12 07:46:35;;;;;;;;;;;31.30;47.50;;;;;;5098528;28;19919;-69
2023/10/12 07:49:25;;;;;;;;;;;31.30;47.70;;;;;;5106615;28;19928;-69
2023/10/12 07:57:20;;;;;;;;;;;31.00;48.20;;;;;;5110293;27;19912;-69
2023/10/12 08:08:33;;;;;;;;;;;30.40;50.90;;;;;;5101429;27;19912;-71
2023/10/12 08:16:04;;;;;;;;;;;29.30;60.60;;;;;;5079181;28;20299;-69
2023/10/12 08:32:15;;;;;;;;;;;28.10;53.60;;;;;;5027636;28;20338;-68
2023/10/12 08:35:10;;;;;;;;;;;28.20;52.40;;;;;;5093518;28;20423;-71
2023/10/12 08:37:36;;;;;;;;;;;28.40;52.10;;;;;;5098045;27;19915;-72
2023/10/12 08:40:18;;;;;;;;;;;28.50;51.80;;;;;;5111044;28;20285;-69
2023/10/12 08:43:06;;;;;;;;;;;28.60;51.70;;;;;;5095312;28;19912;-69
2023/10/12 08:45:33;;;;;;;;;;;28.70;52.20;;;;;;5109801;28;19952;-68
2023/10/12 08:48:03;;;;;;;;;;;28.80;52.10;;;;;;5097395;27;19927;-70
2023/10/12 08:50:58;;;;;;;;;;;28.90;51.90;;;;;;5111128;28;20272;-71
2023/10/12 08:53:27;;;;;;;;;;;28.90;51.60;;;;;;5107082;27;19918;-71
2023/10/12 08:55:54;;;;;;;;;;;28.90;51.70;;;;;;5108776;28;19917;-70
2023/10/12 08:58:39;;;;;;;;;;;29.00;52.00;;;;;;5101606;27;19963;-73
2023/10/12 09:01:09;;;;;;;;;;;29.00;52.20;;;;;;5111879;28;19926;-71
2023/10/12 09:03:44;;;;;;;;;;;29.00;55.70;;;;;;5112459;28;19956;-70
2023/10/12 09:06:29;;;;;;;;;;;28.70;58.50;;;;;;5088468;28;19995;-70
2023/10/12 09:08:56;;;;;;;;;;;28.20;59.90;;;;;;5104936;28;19934;-67
2023/10/12 09:11:33;;;;;;;;;;;27.70;66.90;;;;;;5107174;28;19916;-69
2023/10/12 09:14:00;;;;;;;;;;;26.90;73.20;;;;;;5105215;27;19922;-68
2023/10/12 09:16:27;;;;;;;;;;;25.90;80.20;;;;;;5104312;28;19909;-69
2023/10/12 09:19:00;;;;;;;;;;;25.00;81.50;;;;;;5104551;28;19911;-71
2023/10/12 09:21:39;;;;;;;;;;;24.40;87.50;;;;;;5110051;28;19912;-70
2023/10/12 09:24:27;;;;;;;;;;;24.00;90.70;;;;;;5112475;28;20261;-70
2023/10/12 09:27:00;;;;;;;;;;;23.70;93.00;;;;;;5111118;28;20268;-70
2023/10/12 09:29:40;;;;;;;;;;;23.60;92.80;;;;;;5111970;28;19965;-68
2023/10/12 09:32:19;;;;;;;;;;;23.50;93.90;;;;;;5100335;28;19971;-68
2023/10/12 09:35:33;;;;;;;;;;;23.50;94.70;;;;;;5110570;28;20368;-70
2023/10/12 09:37:51;;;;;;;;;;;23.50;93.60;;;;;;5096482;28;19911;-70
2023/10/12 09:43:12;;;;;;;;;;;23.60;94.10;;;;;;5104425;28;20387;-69
2023/10/12 09:45:44;;;;;;;;;;;23.70;94.40;;;;;;5110311;28;20303;-70
2023/10/12 09:48:24;;;;;;;;;;;23.70;93.10;;;;;;5096154;28;20011;-71
2023/10/12 09:50:53;;;;;;;;;;;23.80;92.60;;;;;;5110658;28;19930;-69
2023/10/12 09:53:26;;;;;;;;;;;23.80;93.50;;;;;;5106697;28;20361;-69
2023/10/12 09:56:10;;;;;;;;;;;23.80;92.20;;;;;;5108407;28;19961;-68
2023/10/12 09:58:45;;;;;;;;;;;23.90;92.70;;;;;;5108833;28;20288;-67
2023/10/12 10:01:22;;;;;;;;;;;23.90;91.60;;;;;;5107186;28;19965;-69
2023/10/12 10:03:50;;;;;;;;;;;23.90;90.90;;;;;;5109581;28;20419;-68
2023/10/12 10:06:28;;;;;;;;;;;23.90;90.60;;;;;;5104819;28;19957;-72
2023/10/12 10:09:10;;;;;;;;;;;23.90;90.20;;;;;;5110909;28;20306;-67
2023/10/12 10:11:39;;;;;;;;;;;23.90;90.20;;;;;;5103793;28;19930;-66
2023/10/12 10:14:09;;;;;;;;;;;23.80;90.10;;;;;;5111950;28;19923;-67
2023/10/12 10:17:11;;;;;;;;;;;23.80;90.20;;;;;;5101756;28;19915;-68
2023/10/12 10:19:29;;;;;;;;;;;23.70;90.00;;;;;;5088449;28;19912;-66
2023/10/12 10:22:05;;;;;;;;;;;23.50;89.20;;;;;;5104637;28;19912;-68
2023/10/12 10:24:44;;;;;;;;;;;23.30;88.90;;;;;;5112025;28;19947;-67
2023/10/12 10:27:14;;;;;;;;;;;23.10;86.30;;;;;;5102477;28;19988;-70
2023/10/12 10:29:45;;;;;;;;;;;22.90;84.40;;;;;;5091855;28;20298;-68
2023/10/12 10:32:18;;;;;;;;;;;22.80;85.10;;;;;;5092207;28;19965;-67
2023/10/12 10:34:45;;;;;;;;;;;22.70;84.50;;;;;;5095624;28;20350;-69
2023/10/12 10:37:15;;;;;;;;;;;22.60;83.80;;;;;;5096196;28;20385;-69
2023/10/12 10:39:43;;;;;;;;;;;22.40;83.00;;;;;;5096313;28;20065;-68
2023/10/12 10:42:10;;;;;;;;;;;22.40;83.20;;;;;;5099293;28;20276;-68
2023/10/12 10:44:41;;;;;;;;;;;22.30;83.30;;;;;;5095821;28;19915;-68
2023/10/12 10:47:10;;;;;;;;;;;22.30;83.30;;;;;;5115904;28;19911;-67
2023/10/12 10:49:37;;;;;;;;;;;22.20;83.10;;;;;;5116421;28;20296;-67
2023/10/12 10:54:33;;;;;;;;;;;21.90;80.70;;;;;;5095670;28;20018;-69
2023/10/12 10:57:04;;;;;;;;;;;21.70;80.30;;;;;;5096028;28;20284;-69
2023/10/12 10:59:33;;;;;;;;;;;21.50;80.10;;;;;;5095084;28;19944;-69
2023/10/12 11:02:00;;;;;;;;;;;21.30;79.80;;;;;;5113494;28;19999;-68
2023/10/12 11:07:03;;;;;;;;;;;20.90;75.40;;;;;;5115541;28;19934;-70
2023/10/12 11:09:54;;;;;;;;;;;20.80;75.90;;;;;;5115660;28;19908;-69
2023/10/12 11:12:22;;;;;;;;;;;20.70;75.70;;;;;;5115146;28;19904;-68
2023/10/12 11:14:58;;;;;;;;;;;20.60;75.90;;;;;;5097882;28;20380;-67
2023/10/12 11:20:43;;;;;;;;;;;20.60;75.50;;;;;;5048053;28;20004;-69
2023/10/12 11:23:11;;;;;;;;;;;20.50;75.70;;;;;;5099761;28;19972;-70
2023/10/12 11:25:41;;;;;;;;;;;20.40;75.60;;;;;;5115124;28;19912;-71
2023/10/12 11:28:37;;;;;;;;;;;20.40;75.40;;;;;;5114692;28;20055;-69
2023/10/12 11:34:12;;;;;;;;;;;20.30;75.70;;;;;;5101519;28;20357;-70
2023/10/12 11:36:39;;;;;;;;;;;20.30;75.60;;;;;;5114964;28;19915;-72
2023/10/12 11:39:21;;;;;;;;;;;20.20;75.40;;;;;;5114758;28;19963;-73
2023/10/12 11:42:12;;;;;;;;;;;20.20;75.00;;;;;;5112667;28;19919;-70
2023/10/12 11:44:42;;;;;;;;;;;20.10;73.50;;;;;;5107873;28;19912;-71
2023/10/12 11:47:10;;;;;;;;;;;20.00;72.80;;;;;;5095484;28;20547;-70
2023/10/12 11:49:49;;;;;;;;;;;20.00;72.70;;;;;;5108379;28;19916;-69
2023/10/12 11:52:50;;;;;;;;;;;19.90;73.10;;;;;;5089474;28;19912;-70
2023/10/12 11:55:24;;;;;;;;;;;19.70;74.30;;;;;;5097619;28;19924;-69
2023/10/12 11:57:55;;;;;;;;;;;19.60;73.30;;;;;;5109379;28;19916;-68
2023/10/12 12:00:21;;;;;;;;;;;19.40;73.20;;;;;;5108565;28;19947;-69
2023/10/12 12:02:52;;;;;;;;;;;19.30;72.90;;;;;;5113728;28;19915;-67
2023/10/12 12:05:19;;;;;;;;;;;19.30;73.30;;;;;;5110623;28;19912;-67
2023/10/12 12:07:51;;;;;;;;;;;19.30;72.70;;;;;;5105012;28;19922;-68
2023/10/12 12:10:20;;;;;;;;;;;19.20;72.30;;;;;;5114706;28;19953;-67
2023/10/12 12:12:47;;;;;;;;;;;19.20;72.30;;;;;;5114133;28;19952;-69
2023/10/12 12:15:14;;;;;;;;;;;19.20;72.40;;;;;;5113246;28;20261;-65
2023/10/12 12:17:41;;;;;;;;;;;19.30;72.90;;;;;;5114612;28;20032;-67
2023/10/12 12:20:13;;;;;;;;;;;19.30;72.30;;;;;;5114566;28;19912;-69
2023/10/12 12:22:42;;;;;;;;;;;19.20;71.90;;;;;;5111698;28;20368;-68
2023/10/12 12:25:20;;;;;;;;;;;19.30;72.00;;;;;;5113332;28;19912;-67
2023/10/12 12:27:55;;;;;;;;;;;19.20;71.60;;;;;;5114039;28;19915;-69
2023/10/12 12:30:33;;;;;;;;;;;19.10;71.70;;;;;;5099487;28;19958;-68
2023/10/12 12:36:04;;;;;;;;;;;19.00;72.90;;;;;;5070960;28;20361;-69
2023/10/12 12:41:05;;;;;;;;;;;18.80;74.70;;;;;;5094000;28;19958;-66
2023/10/12 12:43:35;;;;;;;;;;;18.90;74.60;;;;;;5103594;28;19908;-65
2023/10/12 12:46:04;;;;;;;;;;;18.80;74.10;;;;;;5114386;28;19959;-65
2023/10/12 12:48:31;;;;;;;;;;;18.80;73.40;;;;;;5114206;28;19920;-64
2023/10/12 12:50:57;;;;;;;;;;;18.70;73.50;;;;;;5113987;28;20344;-63
2023/10/12 12:53:24;;;;;;;;;;;18.70;75.70;;;;;;5108683;28;19912;-66
2023/10/12 12:55:51;;;;;;;;;;;18.50;78.60;;;;;;5112429;28;20331;-65
2023/10/12 12:58:18;;;;;;;;;;;18.40;80.50;;;;;;5112801;28;19952;-64
2023/10/12 13:00:48;;;;;;;;;;;18.20;85.70;;;;;;5113614;28;20003;-66
2023/10/12 13:03:17;;;;;;;;;;;18.00;91.30;;;;;;5113339;28;20386;-66
2023/10/12 13:05:46;;;;;;;;;;;17.60;93.60;;;;;;5113553;28;19908;-67
2023/10/12 13:08:16;;;;;;;;;;;17.20;95.70;;;;;;5113459;28;20409;-67
2023/10/12 13:10:43;;;;;;;;;;;16.90;98.10;;;;;;5108576;28;20257;-68
2023/10/12 13:13:12;;;;;;;;;;;16.60;99.90;;;;;;5100341;28;20040;-66
2023/10/12 13:15:42;;;;;;;;;;;16.50;99.90;;;;;;5112950;28;19916;-68
2023/10/12 13:18:19;;;;;;;;;;;16.30;99.90;;;;;;5100035;28;19919;-69
2023/10/12 13:20:49;;;;;;;;;;;16.00;99.90;;;;;;5092860;28;19994;-69
2023/10/12 13:23:21;;;;;;;;;;;15.80;99.90;;;;;;5097467;28;19912;-70
2023/10/12 13:25:48;;;;;;;;;;;15.80;99.90;;;;;;5092735;28;19912;-69
2023/10/12 13:28:16;;;;;;;;;;;15.80;99.90;;;;;;5108195;28;19907;-69
2023/10/12 13:30:43;;;;;;;;;;;15.70;99.90;;;;;;5089936;28;19955;-69
2023/10/12 13:33:13;;;;;;;;;;;15.80;99.90;;;;;;5112798;28;19951;-68
2023/10/12 13:35:46;;;;;;;;;;;15.80;99.90;;;;;;5113356;28;20010;-67
2023/10/12 13:38:15;;;;;;;;;;;15.70;99.90;;;;;;5110063;28;19922;-69
2023/10/12 13:40:48;;;;;;;;;;;15.80;99.90;;;;;;5092447;28;19915;-68
2023/10/12 13:43:15;;;;;;;;;;;15.80;99.90;;;;;;5103724;28;19912;-68
2023/10/12 13:45:48;;;;;;;;;;;15.70;99.90;;;;;;5109458;28;19912;-68
2023/10/12 13:48:21;;;;;;;;;;;15.80;99.90;;;;;;5092282;28;19959;-68
2023/10/12 13:50:59;;;;;;;;;;;15.80;99.90;;;;;;5091786;28;19959;-69
2023/10/12 13:53:26;;;;;;;;;;;15.80;99.90;;;;;;5101483;28;19912;-68
2023/10/12 13:55:53;;;;;;;;;;;15.70;99.90;;;;;;5112332;28;19916;-67
2023/10/12 13:58:26;;;;;;;;;;;15.70;99.90;;;;;;5112532;28;19912;-69
2023/10/12 14:00:54;;;;;;;;;;;15.70;99.90;;;;;;5112781;28;20352;-68
2023/10/12 14:03:34;;;;;;;;;;;15.70;99.90;;;;;;5106588;28;19960;-67
2023/10/12 14:06:01;;;;;;;;;;;15.80;99.90;;;;;;5108993;28;19916;-69
2023/10/12 14:08:35;;;;;;;;;;;15.80;99.90;;;;;;5091803;28;19908;-69
2023/10/12 14:11:06;;;;;;;;;;;15.70;99.90;;;;;;5092054;28;19914;-68
2023/10/12 14:13:33;;;;;;;;;;;15.70;99.90;;;;;;5101685;28;20302;-68
2023/10/12 14:16:00;;;;;;;;;;;15.70;99.90;;;;;;5112997;28;20304;-69
2023/10/12 14:18:31;;;;;;;;;;;15.60;99.90;;;;;;5112914;28;19999;-68
2023/10/12 14:20:57;;;;;;;;;;;15.70;99.90;;;;;;5112520;28;19908;-69
2023/10/12 14:23:27;;;;;;;;;;;15.70;99.90;;;;;;5112636;28;19912;-67
2023/10/12 14:25:57;;;;;;;;;;;15.70;99.90;;;;;;5112510;28;20002;-68
2023/10/12 14:28:24;;;;;;;;;;;15.60;99.90;;;;;;5112759;28;19908;-68
2023/10/12 14:30:51;;;;;;;;;;;15.60;99.90;;;;;;5111357;28;19915;-68
2023/10/12 14:33:20;;;;;;;;;;;15.70;99.90;;;;;;5112583;28;19954;-68
2023/10/12 14:35:48;;;;;;;;;;;15.70;99.90;;;;;;5092334;28;19924;-67
2023/10/12 14:38:16;;;;;;;;;;;15.70;99.90;;;;;;5091844;28;19908;-67
2023/10/12 14:40:44;;;;;;;;;;;15.70;99.90;;;;;;5091885;28;20003;-69
2023/10/12 14:43:12;;;;;;;;;;;15.70;99.90;;;;;;5099060;28;20279;-68
2023/10/12 14:45:43;;;;;;;;;;;15.60;99.90;;;;;;5112704;28;20000;-67
2023/10/12 14:48:10;;;;;;;;;;;15.50;99.90;;;;;;5112526;28;20057;-69
2023/10/12 14:50:38;;;;;;;;;;;15.50;99.90;;;;;;5112065;28;19998;-67
2023/10/12 14:53:05;;;;;;;;;;;15.50;99.90;;;;;;5111983;28;20321;-68
2023/10/12 14:55:32;;;;;;;;;;;15.50;99.90;;;;;;5100540;28;19920;-68
2023/10/12 14:58:01;;;;;;;;;;;15.50;99.90;;;;;;5091740;28;19959;-69
2023/10/12 15:00:29;;;;;;;;;;;15.60;99.90;;;;;;5091504;28;19915;-68
2023/10/12 15:02:57;;;;;;;;;;;15.60;99.90;;;;;;5096696;28;19968;-68
2023/10/12 15:05:27;;;;;;;;;;;15.60;99.90;;;;;;5112654;28;19922;-68
2023/10/12 15:07:57;;;;;;;;;;;15.60;99.90;;;;;;5092323;28;19912;-69
2023/10/12 15:10:25;;;;;;;;;;;15.60;99.90;;;;;;5091835;28;19912;-68
2023/10/12 15:12:51;;;;;;;;;;;15.50;99.90;;;;;;5096066;28;19904;-68
2023/10/12 15:15:28;;;;;;;;;;;15.50;99.90;;;;;;5112246;28;19920;-65
2023/10/12 15:17:54;;;;;;;;;;;15.50;99.90;;;;;;5112393;28;19944;-66
2023/10/12 15:20:26;;;;;;;;;;;15.40;99.90;;;;;;5113137;28;19957;-66
2023/10/12 15:22:55;;;;;;;;;;;15.40;99.90;;;;;;5110453;28;19919;-65
2023/10/12 15:25:22;;;;;;;;;;;15.40;99.90;;;;;;5115607;28;19986;-66
2023/10/12 15:27:49;;;;;;;;;;;15.40;99.90;;;;;;5115473;28;20272;-65
2023/10/12 15:30:16;;;;;;;;;;;15.40;99.90;;;;;;5114396;28;19957;-69
2023/10/12 15:32:43;;;;;;;;;;;15.40;99.90;;;;;;5115255;28;20372;-64
2023/10/12 15:35:14;;;;;;;;;;;15.30;99.90;;;;;;5115243;28;19978;-70
2023/10/12 15:37:45;;;;;;;;;;;15.30;99.90;;;;;;5115257;28;19912;-68
2023/10/12 15:40:26;;;;;;;;;;;15.30;99.90;;;;;;5115421;28;20002;-68
2023/10/12 15:42:59;;;;;;;;;;;15.30;99.90;;;;;;5115337;28;20019;-69
2023/10/12 15:45:26;;;;;;;;;;;15.20;99.80;;;;;;5103611;28;20280;-67
2023/10/12 15:47:57;;;;;;;;;;;15.10;99.90;;;;;;5094987;28;20010;-66
2023/10/12 15:50:26;;;;;;;;;;;15.20;99.80;;;;;;5110619;28;19957;-68
2023/10/12 15:52:55;;;;;;;;;;;15.10;99.80;;;;;;5114526;28;19907;-68
2023/10/12 15:55:24;;;;;;;;;;;14.90;99.80;;;;;;5114323;28;19920;-68
2023/10/12 15:57:52;;;;;;;;;;;14.90;99.60;;;;;;5115009;28;19916;-69
2023/10/12 16:00:23;;;;;;;;;;;14.90;99.20;;;;;;5115022;28;19908;-68
2023/10/12 16:02:50;;;;;;;;;;;14.90;99.70;;;;;;5114801;28;19952;-68
2023/10/12 16:05:16;;;;;;;;;;;14.90;99.90;;;;;;5115158;28;19957;-70
2023/10/12 16:07:43;;;;;;;;;;;14.90;99.70;;;;;;5115096;28;20500;-65
2023/10/12 16:10:10;;;;;;;;;;;14.90;99.70;;;;;;5115215;28;20391;-67
2023/10/12 16:12:37;;;;;;;;;;;14.90;99.30;;;;;;5114371;28;19908;-68
2023/10/12 16:15:04;;;;;;;;;;;14.90;99.90;;;;;;5114947;28;19915;-66
2023/10/12 16:17:31;;;;;;;;;;;15.00;99.60;;;;;;5114081;28;19911;-68
2023/10/12 16:19:57;;;;;;;;;;;15.00;99.90;;;;;;5104273;28;20323;-67
2023/10/12 16:22:24;;;;;;;;;;;15.00;99.80;;;;;;5093945;28;20012;-69
2023/10/12 16:24:52;;;;;;;;;;;15.00;98.90;;;;;;5076170;28;19954;-68
2023/10/12 16:27:18;;;;;;;;;;;14.90;98.80;;;;;;5094090;28;19908;-67
2023/10/12 16:29:46;;;;;;;;;;;15.00;99.20;;;;;;5095193;28;20349;-65
2023/10/12 16:32:16;;;;;;;;;;;15.00;98.10;;;;;;5093350;28;20268;-68
2023/10/12 16:34:43;;;;;;;;;;;14.90;97.00;;;;;;5106845;28;20015;-68
2023/10/12 16:37:09;;;;;;;;;;;15.00;96.90;;;;;;5094149;28;19912;-68
2023/10/12 16:39:36;;;;;;;;;;;14.90;96.10;;;;;;5094177;28;19916;-68
2023/10/12 16:42:04;;;;;;;;;;;14.90;96.50;;;;;;5113199;28;19919;-68
2023/10/12 16:44:31;;;;;;;;;;;14.90;97.10;;;;;;5113221;28;19911;-70
2023/10/12 16:46:57;;;;;;;;;;;14.90;96.10;;;;;;5108349;28;20245;-69
2023/10/12 16:49:24;;;;;;;;;;;14.90;96.30;;;;;;5093361;28;19912;-69
2023/10/12 16:51:51;;;;;;;;;;;14.90;96.60;;;;;;5097993;28;20360;-69
2023/10/12 16:54:18;;;;;;;;;;;14.90;96.50;;;;;;5112811;28;20398;-68
2023/10/12 16:56:45;;;;;;;;;;;14.90;96.70;;;;;;5113718;28;19953;-68
2023/10/12 16:59:18;;;;;;;;;;;14.90;96.20;;;;;;5113453;28;20360;-69
2023/10/12 17:01:44;;;;;;;;;;;14.90;96.50;;;;;;5113856;28;19907;-69
2023/10/12 17:04:30;;;;;;;;;;;14.80;95.90;;;;;;5113568;28;20002;-67
2023/10/12 17:06:58;;;;;;;;;;;14.90;95.90;;;;;;5113588;28;19933;-69
2023/10/12 17:09:25;;;;;;;;;;;14.90;95.70;;;;;;5112048;28;20450;-69
2023/10/12 17:11:51;;;;;;;;;;;14.90;95.60;;;;;;5113374;28;19918;-68
2023/10/12 17:14:18;;;;;;;;;;;14.90;95.80;;;;;;5112388;28;19912;-69
2023/10/12 17:16:45;;;;;;;;;;;14.90;96.00;;;;;;5093028;28;19967;-68
2023/10/12 17:19:12;;;;;;;;;;;14.90;96.80;;;;;;5075181;28;20280;-67
2023/10/12 17:21:39;;;;;;;;;;;14.80;95.80;;;;;;5092865;28;19981;-70
2023/10/12 17:24:06;;;;;;;;;;;14.80;96.00;;;;;;5105178;28;20338;-70